createdAt,value
2022-08-17T00:01:27.733Z,99758.50
2022-08-17T00:06:31.640Z,99815.75
2022-08-17T00:12:42.249Z,99812.56
2022-08-17T00:17:10.022Z,99766.69
2022-08-17T00:22:31.783Z,99716.53
2022-08-17T00:27:53.661Z,99747.94
2022-08-17T00:33:21.905Z,99813.22
2022-08-17T00:38:25.571Z,99808.13
2022-08-17T00:43:46.043Z,99782.16
2022-08-17T00:49:08.837Z,99764.00
2022-08-17T00:54:16.292Z,99761.41
2022-08-17T00:59:21.491Z,99792.63
2022-08-17T01:04:24.759Z,99767.56
2022-08-17T01:09:27.327Z,99759.81
2022-08-17T01:14:29.635Z,99659.91
2022-08-17T01:19:36.171Z,99690.44
2022-08-17T01:24:42.010Z,99779.72
2022-08-17T01:29:48.657Z,99754.00
2022-08-17T01:34:52.865Z,99753.19
2022-08-17T01:40:00.891Z,99748.78
2022-08-17T01:45:09.151Z,99742.72
2022-08-17T01:50:20.827Z,99763.78
2022-08-17T01:55:40.720Z,99744.75
2022-08-17T02:01:02.030Z,99747.44
2022-08-17T02:06:06.623Z,99770.97
2022-08-17T02:11:28.961Z,99685.94
2022-08-17T02:16:51.542Z,99720.06
2022-08-17T02:21:54.663Z,99752.25
2022-08-17T02:26:56.941Z,99769.53
2022-08-17T02:32:01.945Z,99761.75
2022-08-17T02:37:04.369Z,99666.84
2022-08-17T02:42:07.432Z,99739.84
2022-08-17T02:47:11.186Z,99704.44
2022-08-17T02:52:13.525Z,99720.13
2022-08-17T02:57:15.956Z,99726.03
2022-08-17T03:02:41.826Z,99754.69
2022-08-17T03:07:44.582Z,99770.44
2022-08-17T03:12:47.761Z,99764.16
2022-08-17T03:18:08.781Z,99741.66
2022-08-17T03:23:41.570Z,99661.66
2022-08-17T03:28:44.109Z,99746.66
2022-08-17T03:33:46.461Z,99645.66
2022-08-17T03:38:48.792Z,99735.78
2022-08-17T03:43:53.441Z,99707.88
2022-08-17T03:49:14.251Z,99659.22
2022-08-17T03:54:34.973Z,99617.38
2022-08-17T03:59:39.049Z,99760.97
2022-08-17T04:04:41.517Z,99697.47
2022-08-17T04:09:43.888Z,99675.44
2022-08-17T04:14:52.098Z,99735.00
2022-08-17T04:19:56.759Z,99750.31
2022-08-17T04:24:59.685Z,99755.03
2022-08-17T04:30:02.505Z,99727.16
2022-08-17T04:35:06.605Z,99648.91
2022-08-17T04:40:27.845Z,99703.91
2022-08-17T04:45:32.233Z,99723.69
2022-08-17T04:50:36.714Z,99716.25
2022-08-17T04:55:42.811Z,99733.13
2022-08-17T05:00:45.365Z,99678.09
2022-08-17T05:06:06.384Z,99724.41
2022-08-17T05:11:08.845Z,99665.88
2022-08-17T05:16:11.593Z,99710.34
2022-08-17T05:21:14.243Z,99713.97
2022-08-17T05:26:26.350Z,99726.75
2022-08-17T05:31:29.921Z,99661.81
2022-08-17T05:36:50.281Z,99663.81
2022-08-17T05:41:52.870Z,99648.38
2022-08-17T05:47:14.133Z,99613.09
2022-08-17T05:52:56.649Z,99715.84
2022-08-17T05:58:04.800Z,99715.25
2022-08-17T06:03:13.126Z,99721.66
2022-08-17T06:08:24.494Z,99724.59
2022-08-17T06:14:05.432Z,99721.00
2022-08-17T06:19:19.292Z,99683.25
2022-08-17T06:24:28.112Z,99719.00
2022-08-17T06:29:42.841Z,99674.13
2022-08-17T06:34:46.570Z,99699.38
2022-08-17T06:40:20.695Z,99716.47
2022-08-17T06:45:29.110Z,99659.22
2022-08-17T06:50:43.113Z,99722.16
2022-08-17T06:55:57.500Z,99720.59
2022-08-17T07:01:40.705Z,99705.50
2022-08-17T07:06:54.189Z,99615.00
2022-08-17T07:12:16.967Z,99702.69
2022-08-17T07:17:21.447Z,99680.28
2022-08-17T07:23:09.680Z,99654.34
2022-08-17T07:28:13.277Z,99667.03
2022-08-17T07:33:20.409Z,99695.94
2022-08-17T07:38:27.985Z,99651.41
2022-08-17T07:43:44.903Z,99688.00
2022-08-17T07:48:50.428Z,99653.28
2022-08-17T07:54:13.583Z,99688.81
2022-08-17T07:59:24.111Z,99688.28
2022-08-17T08:05:00.563Z,99679.53
2022-08-17T08:10:28.538Z,99672.16
2022-08-17T08:15:53.861Z,99660.16
2022-08-17T08:21:26.266Z,99673.25
2022-08-17T08:26:43.309Z,99619.22
2022-08-17T08:31:48.492Z,99670.56
2022-08-17T08:37:14.974Z,99663.38
2022-08-17T08:42:50.650Z,99665.16
2022-08-17T08:48:58.044Z,99669.91
2022-08-17T08:53:54.187Z,99666.16
2022-08-17T08:59:35.715Z,99628.13
2022-08-17T09:05:13.788Z,99637.13
2022-08-17T09:10:32.045Z,99600.19
2022-08-17T09:16:00.650Z,99601.09
2022-08-17T09:21:29.589Z,99631.16
2022-08-17T09:27:11.070Z,99626.81
2022-08-17T09:32:41.740Z,99629.53
2022-08-17T09:38:05.715Z,99595.34
2022-08-17T09:43:34.321Z,99625.47
2022-08-17T09:48:38.278Z,99638.19
2022-08-17T09:53:41.322Z,99624.72
2022-08-17T09:59:14.204Z,99640.44
2022-08-17T10:04:33.054Z,99641.00
2022-08-17T10:09:57.152Z,99633.03
2022-08-17T10:15:25.392Z,99627.94
2022-08-17T10:20:41.453Z,99631.50
2022-08-17T10:26:10.157Z,99556.50
2022-08-17T10:31:35.904Z,99608.56
2022-08-17T10:36:46.507Z,99623.06
2022-08-17T10:42:32.292Z,99628.09
2022-08-17T10:47:56.092Z,99620.56
2022-08-17T10:52:59.697Z,99598.75
2022-08-17T10:58:24.762Z,99615.75
2022-08-17T11:03:33.161Z,99578.63
2022-08-17T11:08:47.598Z,99609.44
2022-08-17T11:14:04.304Z,99600.94
2022-08-17T11:19:30.864Z,99607.38
2022-08-17T11:24:36.510Z,99598.75
2022-08-17T11:29:58.099Z,99606.03
2022-08-17T11:35:39.102Z,99537.63
2022-08-17T11:40:46.619Z,99597.13
2022-08-17T11:46:18.260Z,99580.50
2022-08-17T11:51:34.737Z,99573.38
2022-08-17T11:56:45.014Z,99577.81
2022-08-17T12:01:57.372Z,99574.38
2022-08-17T12:07:19.139Z,99571.72
2022-08-17T12:12:30.097Z,99540.19
2022-08-17T12:17:40.254Z,99562.16
2022-08-17T12:23:10.521Z,99561.16
2022-08-17T12:28:32.705Z,99553.50
2022-08-17T12:33:36.574Z,99496.25
2022-08-17T12:38:39.032Z,99504.72
2022-08-17T12:43:41.355Z,99559.00
2022-08-17T12:48:59.562Z,99535.94
2022-08-17T12:54:02.623Z,99446.22
2022-08-17T12:59:07.470Z,99513.03
2022-08-17T13:04:14.335Z,99519.25
2022-08-17T13:09:35.771Z,99527.84
2022-08-17T13:14:46.464Z,99544.41
2022-08-17T13:19:50.222Z,99545.00
2022-08-17T13:24:58.807Z,99519.78
2022-08-17T13:30:05.920Z,99496.13
2022-08-17T13:35:49.884Z,99510.22
2022-08-17T13:40:53.551Z,99524.56
2022-08-17T13:46:08.875Z,99479.81
2022-08-17T13:51:25.565Z,99499.56
2022-08-17T13:56:39.815Z,99540.81
2022-08-17T14:01:53.528Z,99503.44
2022-08-17T14:07:16.265Z,99531.13
2022-08-17T14:12:21.959Z,99480.22
2022-08-17T14:17:43.106Z,99493.59
2022-08-17T14:23:03.952Z,99518.06
2022-08-17T14:28:07.262Z,99501.00
2022-08-17T14:33:09.901Z,99501.50
2022-08-17T14:38:12.188Z,99476.56
2022-08-17T14:43:35.167Z,99519.66
2022-08-17T14:48:39.158Z,99511.31
2022-08-17T14:53:42.335Z,99513.81
2022-08-17T14:58:44.747Z,99471.72
2022-08-17T15:03:47.867Z,99495.06
2022-08-17T15:08:50.966Z,99534.81
2022-08-17T15:13:53.445Z,99460.34
2022-08-17T15:19:16.959Z,99529.38
2022-08-17T15:24:19.342Z,99483.69
2022-08-17T15:29:23.743Z,99522.34
2022-08-17T15:34:26.059Z,99485.50
2022-08-17T15:39:28.489Z,99327.28
2022-08-17T15:44:32.586Z,99454.69
2022-08-17T15:49:59.975Z,99501.38
2022-08-17T15:55:24.179Z,99527.91
2022-08-17T16:00:28.787Z,99496.25
2022-08-17T16:05:31.576Z,99480.97
2022-08-17T16:10:35.365Z,99503.91
2022-08-17T16:15:38.385Z,99501.97
2022-08-17T16:20:40.765Z,99455.47
2022-08-17T16:25:52.731Z,99476.91
2022-08-17T16:30:56.359Z,99478.97
2022-08-17T16:36:18.094Z,99480.16
2022-08-17T16:42:01.807Z,99500.94
2022-08-17T16:47:04.996Z,99495.22
2022-08-17T16:52:11.993Z,99478.19
2022-08-17T16:57:15.397Z,99547.81
2022-08-17T17:02:32.442Z,99489.56
2022-08-17T17:08:03.653Z,99561.09
2022-08-17T17:13:41.624Z,99559.25
2022-08-17T17:19:08.191Z,99571.44
2022-08-17T17:24:15.842Z,99448.41
2022-08-17T17:29:47.692Z,99563.56
2022-08-17T17:34:54.436Z,99480.94
2022-08-17T17:40:23.515Z,99531.38
2022-08-17T17:45:45.228Z,99540.34
2022-08-17T17:52:08.729Z,99545.88
2022-08-17T17:57:11.313Z,99538.78
2022-08-17T18:02:52.241Z,99552.06
2022-08-17T18:08:34.936Z,99543.25
2022-08-17T18:13:57.662Z,99542.88
2022-08-17T18:19:25.322Z,99508.00
2022-08-17T18:24:39.914Z,99503.28
2022-08-17T18:30:08.763Z,99503.56
2022-08-17T18:35:32.874Z,99480.84
2022-08-17T18:40:37.849Z,99529.50
2022-08-17T18:45:43.247Z,99542.09
2022-08-17T18:51:41.913Z,99488.19
2022-08-17T18:56:59.641Z,99533.00
2022-08-17T19:07:43.682Z,99542.72
2022-08-17T19:13:12.705Z,99542.31
2022-08-17T19:18:17.670Z,99540.19
2022-08-17T19:23:36.699Z,99535.28
2022-08-17T19:28:48.025Z,99527.53
2022-08-17T19:34:11.622Z,99541.88
2022-08-17T19:39:38.155Z,99541.88
2022-08-17T19:44:59.807Z,99540.88
2022-08-17T19:50:38.723Z,99472.75
2022-08-17T19:56:12.682Z,99539.38
2022-08-17T20:01:40.577Z,99487.31
2022-08-17T20:06:44.783Z,99502.28
2022-08-17T20:12:19.274Z,99454.88
2022-08-17T20:17:25.636Z,99543.28
2022-08-17T20:22:49.697Z,99523.25
2022-08-17T20:28:06.011Z,99449.25
2022-08-17T20:33:27.858Z,99540.56
2022-08-17T20:38:44.559Z,99556.19
2022-08-17T20:44:07.377Z,99561.44
2022-08-17T20:49:35.872Z,99559.59
2022-08-17T20:54:57.572Z,99527.31
2022-08-17T21:00:30.092Z,99556.50
2022-08-17T21:05:57.321Z,99542.47
2022-08-17T21:11:59.980Z,99524.94
2022-08-17T21:17:20.353Z,99545.09
2022-08-17T21:22:31.986Z,99573.47
2022-08-17T21:28:07.382Z,99567.53
2022-08-17T21:33:33.640Z,99436.53
2022-08-17T21:38:48.009Z,99562.97
2022-08-17T21:43:52.336Z,99564.41
2022-08-17T21:48:55.633Z,99447.16
2022-08-17T21:54:05.109Z,99521.44
2022-08-17T21:59:34.871Z,99540.84
2022-08-17T22:05:08.956Z,99523.47
2022-08-17T22:10:50.689Z,99578.78
2022-08-17T22:16:27.940Z,99577.47
2022-08-17T22:21:31.488Z,99545.06
2022-08-17T22:27:07.715Z,99574.28
2022-08-17T22:32:41.698Z,99552.34
2022-08-17T22:38:20.884Z,99589.78
2022-08-17T22:43:28.829Z,99540.06
2022-08-17T22:48:31.508Z,99515.34
2022-08-17T22:53:53.785Z,99518.94
2022-08-17T22:59:16.580Z,99527.72
2022-08-17T23:04:46.325Z,99588.97
2022-08-17T23:09:52.067Z,99583.47
2022-08-17T23:15:02.359Z,99560.09
2022-08-17T23:20:09.349Z,99561.53
2022-08-17T23:25:32.113Z,99599.91
2022-08-17T23:30:52.777Z,99547.84
2022-08-17T23:35:55.115Z,99578.72
2022-08-17T23:41:21.273Z,99591.66
2022-08-17T23:46:44.610Z,99560.00
2022-08-17T23:51:48.259Z,99507.66
2022-08-17T23:56:50.695Z,99539.63
